Terminal Aerodrome Forecast
Issued by NWS

Home | Current Version | Previous Version | Text Only | Print | Product List | Glossary On
Versions: 1 2 3 4 5 6 7 8 9 10 11 12 13 14 15 16 17 18
000
FTAK31 PAFA 061720
TAFASC
TAF
PASC 061720Z 0618/0718 06005KT 3SM -FZDZ BR OVC004
     FM062100 05010KT 4SM BR OVC007
     FM070800 06005KT 2SM BR OVC005=

USA.gov is the U.S. government's official web portal to all federal, state and local government web resources and services.